This is the latest recevied weather packets stored in our database for station/object AG1T-20. If no packets are shown the sender has not sent any weather packets the latest 10 day(s).
| Time | Temp. | Humidity | Pressure | Rain* | Wind** | Luminosity | Snow |
|---|---|---|---|---|---|---|---|
| 1787549405 | 22.22° C | 43% | 1023 hPa | 0 mm | - | 0 W/m² | - |
| 1787548805 | 21.11° C | 54% | 1023 hPa | 0 mm | - | 0 W/m² | - |
| 1787548205 | 22.78° C | 47% | 1023 hPa | 0 mm | - | 0 W/m² | - |
| 1787547604 | 21.11° C | 49% | 1023 hPa | 0 mm | - | 0 W/m² | - |
| 1787547005 | 20.56° C | 52% | 1023.3 hPa | 0 mm | - | 0 W/m² | - |
| 1787546404 | 20° C | 54% | 1023.3 hPa | 0 mm | - | 0 W/m² | - |
| 1787545807 | 20° C | 57% | 1023.3 hPa | 0 mm | - | 0 W/m² | - |
| 1787545204 | 18.33° C | 68% | 1023.3 hPa | 0 mm | - | 0 W/m² | - |
| 1787544605 | 18.33° C | 70% | 1023.3 hPa | 0 mm | - | 0 W/m² | - |
| 1787544004 | 17.78° C | 73% | 1023.3 hPa | 0 mm | - | 0 W/m² | - |
| 1787543407 | 17.22° C | 75% | 1022.4 hPa | 0 mm | - | 0 W/m² | - |
| 1787542805 | 17.22° C | 77% | 1022.4 hPa | 3.05 mm | - | 0 W/m² | - |
| 1787542205 | 17.78° C | 74% | 1022.4 hPa | 3.56 mm | - | 0 W/m² | - |
| 1787541604 | 17.78° C | 78% | 1022.4 hPa | 3.56 mm | - | 0 W/m² | - |
| 1787541005 | 16.11° C | 81% | 1022.4 hPa | 3.56 mm | - | 0 W/m² | - |
| 1787540405 | 16.11° C | 82% | 1022.4 hPa | 3.56 mm | - | 0 W/m² | - |
| 1787539807 | 16.11° C | 80% | 1019.9 hPa | 3.56 mm | - | 0 W/m² | - |
| 1787539205 | 15.56° C | 82% | 1019.9 hPa | 0.51 mm | - | 0 W/m² | - |
| 1787538607 | 16.67° C | 71% | 1019.9 hPa | 0 mm | - | 0 W/m² | - |
| 1787538004 | 23.89° C | 40% | 1019.9 hPa | 0 mm | - | 0 W/m² | - |
| 1787537405 | 26.67° C | 30% | 1019.9 hPa | 0 mm | - | 1 W/m² | - |
| 1787536804 | 27.22° C | 30% | 1019.9 hPa | 0 mm | - | 2 W/m² | - |
| 1787536205 | 27.22° C | 30% | 1019.5 hPa | 0 mm | - | 7 W/m² | - |
| 1787535605 | 26.67° C | 35% | 1019.5 hPa | 0 mm | - | 11 W/m² | - |
| 1787535005 | 26.67° C | 35% | 1019.5 hPa | 0 mm | - | 18 W/m² | - |
* Rain latest hour (hover to see other rain measurements)
** Current wind speed in m/s (hover to see current wind gust speed)